sensor_id;sensor_type;location;lat;lon;timestamp;pressure;altitude;pressure_sealevel;temperature;humidity
68380;BME280;57711;53.196;19.638;2023-02-14T00:01:08;101772.98;;;4.12;71.66
68380;BME280;57711;53.196;19.638;2023-02-14T00:03:36;101779.09;;;4.12;71.63
68380;BME280;57711;53.196;19.638;2023-02-14T00:06:11;101782.32;;;4.12;71.50
68380;BME280;57711;53.196;19.638;2023-02-14T00:08:39;101785.96;;;4.10;71.62
68380;BME280;57711;53.196;19.638;2023-02-14T00:11:11;101791.11;;;4.11;71.61
68380;BME280;57711;53.196;19.638;2023-02-14T00:13:39;101792.09;;;4.14;71.52
68380;BME280;57711;53.196;19.638;2023-02-14T00:16:26;101792.59;;;4.15;71.52
68380;BME280;57711;53.196;19.638;2023-02-14T00:18:53;101785.89;;;4.17;71.74
68380;BME280;57711;53.196;19.638;2023-02-14T00:21:34;101780.08;;;4.19;71.65
68380;BME280;57711;53.196;19.638;2023-02-14T00:24:11;101776.35;;;4.19;71.77
68380;BME280;57711;53.196;19.638;2023-02-14T00:26:39;101778.01;;;4.17;71.69
68380;BME280;57711;53.196;19.638;2023-02-14T00:29:09;101779.16;;;4.15;71.78
68380;BME280;57711;53.196;19.638;2023-02-14T00:31:37;101780.86;;;4.13;71.72
68380;BME280;57711;53.196;19.638;2023-02-14T00:34:05;101783.79;;;4.11;71.69
68380;BME280;57711;53.196;19.638;2023-02-14T00:36:33;101787.15;;;4.12;71.65
68380;BME280;57711;53.196;19.638;2023-02-14T00:39:05;101782.45;;;4.13;71.51
68380;BME280;57711;53.196;19.638;2023-02-14T00:41:32;101787.11;;;4.18;71.62
68380;BME280;57711;53.196;19.638;2023-02-14T00:44:00;101787.54;;;4.21;71.78
68380;BME280;57711;53.196;19.638;2023-02-14T00:46:27;101792.15;;;4.22;71.76
68380;BME280;57711;53.196;19.638;2023-02-14T00:48:54;101794.64;;;4.22;71.73
68380;BME280;57711;53.196;19.638;2023-02-14T00:51:22;101800.89;;;4.23;71.78
68380;BME280;57711;53.196;19.638;2023-02-14T00:53:50;101811.45;;;4.18;71.62
68380;BME280;57711;53.196;19.638;2023-02-14T00:56:18;101815.13;;;4.16;71.64
68380;BME280;57711;53.196;19.638;2023-02-14T00:58:46;101810.35;;;4.14;71.70
68380;BME280;57711;53.196;19.638;2023-02-14T01:01:16;101812.55;;;4.12;71.81
68380;BME280;57711;53.196;19.638;2023-02-14T01:03:44;101809.55;;;4.11;71.74
68380;BME280;57711;53.196;19.638;2023-02-14T01:06:11;101812.46;;;4.15;71.63
68380;BME280;57711;53.196;19.638;2023-02-14T01:08:38;101810.41;;;4.17;71.72
68380;BME280;57711;53.196;19.638;2023-02-14T01:11:24;101807.75;;;4.17;71.74
68380;BME280;57711;53.196;19.638;2023-02-14T01:13:54;101813.94;;;4.19;71.76
68380;BME280;57711;53.196;19.638;2023-02-14T01:16:23;101805.23;;;4.22;71.70
68380;BME280;57711;53.196;19.638;2023-02-14T01:18:54;101806.29;;;4.22;71.64
68380;BME280;57711;53.196;19.638;2023-02-14T01:21:24;101802.54;;;4.22;71.78
68380;BME280;57711;53.196;19.638;2023-02-14T01:23:57;101804.99;;;4.23;71.76
68380;BME280;57711;53.196;19.638;2023-02-14T01:26:25;101813.45;;;4.22;71.84
68380;BME280;57711;53.196;19.638;2023-02-14T01:28:54;101815.50;;;4.20;71.71
68380;BME280;57711;53.196;19.638;2023-02-14T01:31:24;101809.84;;;4.18;71.80
68380;BME280;57711;53.196;19.638;2023-02-14T01:33:53;101818.15;;;4.16;71.76
68380;BME280;57711;53.196;19.638;2023-02-14T01:36:23;101818.29;;;4.17;71.70
68380;BME280;57711;53.196;19.638;2023-02-14T01:38:54;101822.16;;;4.19;71.67
68380;BME280;57711;53.196;19.638;2023-02-14T01:41:23;101826.26;;;4.20;71.60
68380;BME280;57711;53.196;19.638;2023-02-14T01:46:28;101823.81;;;4.23;71.94
68380;BME280;57711;53.196;19.638;2023-02-14T01:49:02;101826.75;;;4.26;71.81
68380;BME280;57711;53.196;19.638;2023-02-14T01:51:33;101820.59;;;4.27;71.88
68380;BME280;57711;53.196;19.638;2023-02-14T01:54:05;101809.55;;;4.26;71.85
68380;BME280;57711;53.196;19.638;2023-02-14T01:56:36;101807.72;;;4.22;71.75
68380;BME280;57711;53.196;19.638;2023-02-14T01:59:07;101812.89;;;4.18;71.70
68380;BME280;57711;53.196;19.638;2023-02-14T02:01:37;101819.38;;;4.17;71.82
68380;BME280;57711;53.196;19.638;2023-02-14T02:04:16;101813.12;;;4.16;71.65
68380;BME280;57711;53.196;19.638;2023-02-14T02:06:49;101808.66;;;4.16;71.81
68380;BME280;57711;53.196;19.638;2023-02-14T02:09:30;101814.91;;;4.16;71.82
68380;BME280;57711;53.196;19.638;2023-02-14T02:11:59;101816.59;;;4.20;71.85
68380;BME280;57711;53.196;19.638;2023-02-14T02:14:27;101822.10;;;4.21;71.80
68380;BME280;57711;53.196;19.638;2023-02-14T02:22:38;101819.66;;;4.14;71.86
68380;BME280;57711;53.196;19.638;2023-02-14T02:31:16;101833.73;;;4.06;71.79
68380;BME280;57711;53.196;19.638;2023-02-14T02:37:18;101823.83;;;4.12;71.81
68380;BME280;57711;53.196;19.638;2023-02-14T02:40:25;101822.64;;;4.16;71.71
68380;BME280;57711;53.196;19.638;2023-02-14T02:48:34;101821.67;;;4.22;71.94
68380;BME280;57711;53.196;19.638;2023-02-14T02:51:09;101819.21;;;4.22;71.79
68380;BME280;57711;53.196;19.638;2023-02-14T02:54:04;101827.48;;;4.21;71.83
68380;BME280;57711;53.196;19.638;2023-02-14T02:56:45;101829.09;;;4.20;71.92
68380;BME280;57711;53.196;19.638;2023-02-14T02:59:33;101823.77;;;4.19;71.79
68380;BME280;57711;53.196;19.638;2023-02-14T03:02:19;101820.70;;;4.20;71.83
68380;BME280;57711;53.196;19.638;2023-02-14T03:04:54;101826.83;;;4.23;72.02
68380;BME280;57711;53.196;19.638;2023-02-14T03:10:14;101831.33;;;4.28;71.98
68380;BME280;57711;53.196;19.638;2023-02-14T03:16:23;101833.09;;;4.33;71.92
68380;BME280;57711;53.196;19.638;2023-02-14T03:19:09;101834.81;;;4.30;71.87
68380;BME280;57711;53.196;19.638;2023-02-14T03:22:11;101841.90;;;4.27;71.87
68380;BME280;57711;53.196;19.638;2023-02-14T03:25:03;101838.61;;;4.25;71.96
68380;BME280;57711;53.196;19.638;2023-02-14T03:27:40;101841.65;;;4.24;71.92
68380;BME280;57711;53.196;19.638;2023-02-14T03:30:27;101841.27;;;4.25;71.92
68380;BME280;57711;53.196;19.638;2023-02-14T03:33:00;101839.46;;;4.25;71.84
68380;BME280;57711;53.196;19.638;2023-02-14T03:38:43;101843.16;;;4.27;71.91
68380;BME280;57711;53.196;19.638;2023-02-14T03:41:21;101841.96;;;4.30;71.95
68380;BME280;57711;53.196;19.638;2023-02-14T03:43:56;101844.13;;;4.34;72.05
68380;BME280;57711;53.196;19.638;2023-02-14T03:46:35;101851.16;;;4.38;71.92
68380;BME280;57711;53.196;19.638;2023-02-14T03:49:08;101854.86;;;4.40;71.87
68380;BME280;57711;53.196;19.638;2023-02-14T03:51:37;101851.33;;;4.39;71.90
68380;BME280;57711;53.196;19.638;2023-02-14T03:54:08;101848.89;;;4.37;71.94
68380;BME280;57711;53.196;19.638;2023-02-14T03:56:49;101846.99;;;4.35;71.97
68380;BME280;57711;53.196;19.638;2023-02-14T03:59:23;101852.04;;;4.34;71.98
68380;BME280;57711;53.196;19.638;2023-02-14T04:04:43;101852.48;;;4.32;71.88
68380;BME280;57711;53.196;19.638;2023-02-14T04:07:13;101853.03;;;4.31;72.03
68380;BME280;57711;53.196;19.638;2023-02-14T04:09:41;101856.03;;;4.32;71.88
68380;BME280;57711;53.196;19.638;2023-02-14T04:12:09;101858.28;;;4.34;72.02
68380;BME280;57711;53.196;19.638;2023-02-14T04:14:37;101854.96;;;4.37;71.95
68380;BME280;57711;53.196;19.638;2023-02-14T04:17:04;101840.55;;;4.40;71.90
68380;BME280;57711;53.196;19.638;2023-02-14T04:19:50;101842.65;;;4.41;71.97
68380;BME280;57711;53.196;19.638;2023-02-14T04:22:18;101846.40;;;4.41;72.02
68380;BME280;57711;53.196;19.638;2023-02-14T04:24:45;101845.89;;;4.40;71.95
68380;BME280;57711;53.196;19.638;2023-02-14T04:27:13;101847.02;;;4.39;72.14
68380;BME280;57711;53.196;19.638;2023-02-14T04:29:45;101857.30;;;4.37;72.08
68380;BME280;57711;53.196;19.638;2023-02-14T04:32:16;101852.82;;;4.37;72.14
68380;BME280;57711;53.196;19.638;2023-02-14T04:34:44;101849.05;;;4.38;72.24
68380;BME280;57711;53.196;19.638;2023-02-14T04:37:12;101850.47;;;4.38;72.06
68380;BME280;57711;53.196;19.638;2023-02-14T04:39:39;101860.98;;;4.39;72.09
68380;BME280;57711;53.196;19.638;2023-02-14T04:42:07;101855.76;;;4.40;71.94
68380;BME280;57711;53.196;19.638;2023-02-14T04:44:34;101851.63;;;4.40;72.04
68380;BME280;57711;53.196;19.638;2023-02-14T04:47:01;101852.58;;;4.39;71.93
68380;BME280;57711;53.196;19.638;2023-02-14T04:49:28;101858.48;;;4.39;71.88
68380;BME280;57711;53.196;19.638;2023-02-14T04:51:55;101866.73;;;4.39;71.97
68380;BME280;57711;53.196;19.638;2023-02-14T04:54:22;101864.98;;;4.37;71.92
68380;BME280;57711;53.196;19.638;2023-02-14T04:56:50;101865.30;;;4.38;72.03
68380;BME280;57711;53.196;19.638;2023-02-14T04:59:17;101860.98;;;4.39;72.14
68380;BME280;57711;53.196;19.638;2023-02-14T05:01:45;101866.95;;;4.37;72.07
68380;BME280;57711;53.196;19.638;2023-02-14T05:04:12;101872.25;;;4.34;72.01
68380;BME280;57711;53.196;19.638;2023-02-14T05:06:39;101873.84;;;4.35;72.22
68380;BME280;57711;53.196;19.638;2023-02-14T05:09:06;101873.63;;;4.36;72.03
68380;BME280;57711;53.196;19.638;2023-02-14T05:11:33;101871.73;;;4.39;72.11
68380;BME280;57711;53.196;19.638;2023-02-14T05:14:00;101870.59;;;4.41;72.09
68380;BME280;57711;53.196;19.638;2023-02-14T05:16:28;101871.63;;;4.42;72.00
68380;BME280;57711;53.196;19.638;2023-02-14T05:18:55;101874.33;;;4.42;72.13
68380;BME280;57711;53.196;19.638;2023-02-14T05:21:22;101875.16;;;4.43;72.06
68380;BME280;57711;53.196;19.638;2023-02-14T05:23:49;101877.53;;;4.42;72.03
68380;BME280;57711;53.196;19.638;2023-02-14T05:26:16;101875.39;;;4.41;72.02
68380;BME280;57711;53.196;19.638;2023-02-14T05:28:44;101878.63;;;4.41;72.27
68380;BME280;57711;53.196;19.638;2023-02-14T05:31:11;101878.39;;;4.38;72.04
68380;BME280;57711;53.196;19.638;2023-02-14T05:33:38;101878.29;;;4.36;72.10
68380;BME280;57711;53.196;19.638;2023-02-14T05:36:05;101885.42;;;4.37;72.05
68380;BME280;57711;53.196;19.638;2023-02-14T05:38:32;101883.83;;;4.36;71.98
68380;BME280;57711;53.196;19.638;2023-02-14T05:41:01;101872.21;;;4.35;72.06
68380;BME280;57711;53.196;19.638;2023-02-14T05:43:28;101877.54;;;4.37;71.93
68380;BME280;57711;53.196;19.638;2023-02-14T05:45:56;101887.68;;;4.39;72.15
68380;BME280;57711;53.196;19.638;2023-02-14T05:48:24;101892.29;;;4.40;72.12
68380;BME280;57711;53.196;19.638;2023-02-14T05:50:51;101896.90;;;4.41;72.11
68380;BME280;57711;53.196;19.638;2023-02-14T05:53:19;101894.29;;;4.39;72.13
68380;BME280;57711;53.196;19.638;2023-02-14T05:55:46;101896.69;;;4.37;72.15
68380;BME280;57711;53.196;19.638;2023-02-14T05:58:13;101903.17;;;4.36;72.12
68380;BME280;57711;53.196;19.638;2023-02-14T06:00:40;101909.12;;;4.35;72.17
68380;BME280;57711;53.196;19.638;2023-02-14T06:03:07;101909.91;;;4.33;72.24
68380;BME280;57711;53.196;19.638;2023-02-14T06:05:35;101905.42;;;4.34;72.27
68380;BME280;57711;53.196;19.638;2023-02-14T06:08:02;101904.80;;;4.36;72.14
68380;BME280;57711;53.196;19.638;2023-02-14T06:10:29;101911.17;;;4.38;72.08
68380;BME280;57711;53.196;19.638;2023-02-14T06:12:56;101920.84;;;4.38;72.19
68380;BME280;57711;53.196;19.638;2023-02-14T06:15:24;101919.67;;;4.41;72.16
68380;BME280;57711;53.196;19.638;2023-02-14T06:17:53;101913.85;;;4.43;72.16
68380;BME280;57711;53.196;19.638;2023-02-14T06:20:22;101917.77;;;4.43;72.09
68380;BME280;57711;53.196;19.638;2023-02-14T06:22:50;101920.86;;;4.42;72.02
68380;BME280;57711;53.196;19.638;2023-02-14T06:25:19;101921.30;;;4.40;72.22
68380;BME280;57711;53.196;19.638;2023-02-14T06:27:47;101917.77;;;4.38;72.13
68380;BME280;57711;53.196;19.638;2023-02-14T06:30:16;101916.08;;;4.36;71.94
68380;BME280;57711;53.196;19.638;2023-02-14T06:32:43;101927.92;;;4.35;72.05
68380;BME280;57711;53.196;19.638;2023-02-14T06:35:11;101933.21;;;4.38;72.19
68380;BME280;57711;53.196;19.638;2023-02-14T06:37:39;101933.30;;;4.40;72.16
68380;BME280;57711;53.196;19.638;2023-02-14T06:40:09;101929.48;;;4.41;72.16
68380;BME280;57711;53.196;19.638;2023-02-14T06:42:36;101934.27;;;4.43;72.25
68380;BME280;57711;53.196;19.638;2023-02-14T06:45:04;101937.98;;;4.44;72.20
68380;BME280;57711;53.196;19.638;2023-02-14T06:47:31;101937.28;;;4.44;72.20
68380;BME280;57711;53.196;19.638;2023-02-14T06:50:01;101934.77;;;4.43;72.30
68380;BME280;57711;53.196;19.638;2023-02-14T06:52:31;101942.86;;;4.43;72.29
68380;BME280;57711;53.196;19.638;2023-02-14T06:54:58;101941.30;;;4.42;72.33
68380;BME280;57711;53.196;19.638;2023-02-14T06:57:26;101942.73;;;4.41;72.26
68380;BME280;57711;53.196;19.638;2023-02-14T06:59:53;101943.17;;;4.44;72.26
68380;BME280;57711;53.196;19.638;2023-02-14T07:02:20;101948.92;;;4.48;72.29
68380;BME280;57711;53.196;19.638;2023-02-14T07:04:50;101952.39;;;4.52;72.33
68380;BME280;57711;53.196;19.638;2023-02-14T07:07:18;101953.36;;;4.54;72.24
68380;BME280;57711;53.196;19.638;2023-02-14T07:09:45;101955.51;;;4.59;72.24
68380;BME280;57711;53.196;19.638;2023-02-14T07:12:12;101962.36;;;4.63;72.29
68380;BME280;57711;53.196;19.638;2023-02-14T07:14:39;101971.65;;;4.64;72.30
68380;BME280;57711;53.196;19.638;2023-02-14T07:17:06;101974.52;;;4.64;72.21
68380;BME280;57711;53.196;19.638;2023-02-14T07:19:33;101978.00;;;4.61;72.34
68380;BME280;57711;53.196;19.638;2023-02-14T07:22:01;101980.42;;;4.59;72.12
68380;BME280;57711;53.196;19.638;2023-02-14T07:24:28;101981.88;;;4.54;72.14
68380;BME280;57711;53.196;19.638;2023-02-14T07:26:56;101988.45;;;4.50;72.12
68380;BME280;57711;53.196;19.638;2023-02-14T07:29:23;101992.59;;;4.50;72.19
68380;BME280;57711;53.196;19.638;2023-02-14T07:31:50;101991.99;;;4.51;72.26
68380;BME280;57711;53.196;19.638;2023-02-14T07:34:17;101997.13;;;4.52;72.31
68380;BME280;57711;53.196;19.638;2023-02-14T07:36:45;102002.77;;;4.56;72.22
68380;BME280;57711;53.196;19.638;2023-02-14T07:39:12;102001.39;;;4.59;72.24
68380;BME280;57711;53.196;19.638;2023-02-14T07:41:39;101995.29;;;4.59;72.19
68380;BME280;57711;53.196;19.638;2023-02-14T07:44:08;101998.34;;;4.59;72.10
68380;BME280;57711;53.196;19.638;2023-02-14T07:46:35;101997.84;;;4.58;72.35
68380;BME280;57711;53.196;19.638;2023-02-14T07:49:02;102004.27;;;4.59;72.42
68380;BME280;57711;53.196;19.638;2023-02-14T07:51:30;102009.16;;;4.58;72.38
68380;BME280;57711;53.196;19.638;2023-02-14T07:53:57;101998.77;;;4.57;72.38
68380;BME280;57711;53.196;19.638;2023-02-14T07:56:24;101991.63;;;4.57;72.30
68380;BME280;57711;53.196;19.638;2023-02-14T07:58:51;101994.40;;;4.59;72.33
68380;BME280;57711;53.196;19.638;2023-02-14T08:01:18;102006.55;;;4.60;72.19
68380;BME280;57711;53.196;19.638;2023-02-14T08:03:46;102002.39;;;4.61;72.29
68380;BME280;57711;53.196;19.638;2023-02-14T08:06:18;101999.98;;;4.63;72.28
68380;BME280;57711;53.196;19.638;2023-02-14T08:08:46;101997.41;;;4.65;72.35
68380;BME280;57711;53.196;19.638;2023-02-14T08:11:13;102006.40;;;4.64;72.11
68380;BME280;57711;53.196;19.638;2023-02-14T08:13:59;102019.33;;;4.64;72.27
68380;BME280;57711;53.196;19.638;2023-02-14T08:16:27;102020.89;;;4.65;72.37
68380;BME280;57711;53.196;19.638;2023-02-14T08:18:54;102019.41;;;4.66;72.39
68380;BME280;57711;53.196;19.638;2023-02-14T08:21:21;102018.12;;;4.67;72.49
68380;BME280;57711;53.196;19.638;2023-02-14T08:23:48;102019.41;;;4.66;72.36
68380;BME280;57711;53.196;19.638;2023-02-14T08:26:16;102025.15;;;4.66;72.49
68380;BME280;57711;53.196;19.638;2023-02-14T08:28:43;102022.70;;;4.69;72.50
68380;BME280;57711;53.196;19.638;2023-02-14T08:31:11;102020.50;;;4.71;72.46
68380;BME280;57711;53.196;19.638;2023-02-14T08:33:38;102018.67;;;4.71;72.21
68380;BME280;57711;53.196;19.638;2023-02-14T08:36:05;102016.84;;;4.73;72.25
68380;BME280;57711;53.196;19.638;2023-02-14T08:38:32;102016.95;;;4.75;72.22
68380;BME280;57711;53.196;19.638;2023-02-14T08:41:00;102018.47;;;4.77;72.33
68380;BME280;57711;53.196;19.638;2023-02-14T08:43:31;102020.38;;;4.79;72.36
68380;BME280;57711;53.196;19.638;2023-02-14T08:46:00;102022.16;;;4.79;72.38
68380;BME280;57711;53.196;19.638;2023-02-14T08:48:28;102010.12;;;4.80;72.36
68380;BME280;57711;53.196;19.638;2023-02-14T08:50:55;102002.92;;;4.81;72.46
68380;BME280;57711;53.196;19.638;2023-02-14T08:53:23;102010.61;;;4.81;72.36
68380;BME280;57711;53.196;19.638;2023-02-14T08:55:51;102016.32;;;4.82;72.46
68380;BME280;57711;53.196;19.638;2023-02-14T08:58:18;102013.19;;;4.79;72.32
68380;BME280;57711;53.196;19.638;2023-02-14T09:00:45;102007.89;;;4.82;72.49
68380;BME280;57711;53.196;19.638;2023-02-14T09:03:12;102010.47;;;4.85;72.39
68380;BME280;57711;53.196;19.638;2023-02-14T09:05:40;102012.52;;;4.88;72.37
68380;BME280;57711;53.196;19.638;2023-02-14T09:08:07;102018.35;;;4.90;72.29
68380;BME280;57711;53.196;19.638;2023-02-14T09:10:35;102017.73;;;4.93;72.42
68380;BME280;57711;53.196;19.638;2023-02-14T09:13:02;102018.23;;;4.98;72.28
68380;BME280;57711;53.196;19.638;2023-02-14T09:15:29;102022.25;;;5.01;72.24
68380;BME280;57711;53.196;19.638;2023-02-14T09:17:56;102023.03;;;5.04;72.28
68380;BME280;57711;53.196;19.638;2023-02-14T09:20:24;102015.11;;;5.05;72.24
68380;BME280;57711;53.196;19.638;2023-02-14T09:22:54;102016.40;;;5.04;72.27
68380;BME280;57711;53.196;19.638;2023-02-14T09:25:21;102018.03;;;5.03;72.22
68380;BME280;57711;53.196;19.638;2023-02-14T09:27:48;102021.03;;;5.05;72.48
68380;BME280;57711;53.196;19.638;2023-02-14T09:30:16;102020.94;;;5.07;72.38
68380;BME280;57711;53.196;19.638;2023-02-14T09:32:43;102014.98;;;5.08;72.32
68380;BME280;57711;53.196;19.638;2023-02-14T09:35:10;102017.56;;;5.11;72.44
68380;BME280;57711;53.196;19.638;2023-02-14T09:37:37;102020.34;;;5.14;72.31
68380;BME280;57711;53.196;19.638;2023-02-14T09:40:05;102025.75;;;5.17;72.41
68380;BME280;57711;53.196;19.638;2023-02-14T09:42:38;102026.55;;;5.20;72.18
68380;BME280;57711;53.196;19.638;2023-02-14T09:45:13;102031.48;;;5.22;72.28
68380;BME280;57711;53.196;19.638;2023-02-14T09:47:51;102023.57;;;5.22;72.23
68380;BME280;57711;53.196;19.638;2023-02-14T09:52:56;102026.92;;;5.24;72.32
68380;BME280;57711;53.196;19.638;2023-02-14T09:55:28;102029.17;;;5.26;72.26
68380;BME280;57711;53.196;19.638;2023-02-14T09:58:05;102030.37;;;5.27;72.30
68380;BME280;57711;53.196;19.638;2023-02-14T10:00:37;102033.17;;;5.29;72.27
68380;BME280;57711;53.196;19.638;2023-02-14T10:03:31;102029.73;;;5.35;72.23
68380;BME280;57711;53.196;19.638;2023-02-14T10:06:32;102030.85;;;5.43;72.19
68380;BME280;57711;53.196;19.638;2023-02-14T10:12:15;102027.27;;;5.52;72.18
68380;BME280;57711;53.196;19.638;2023-02-14T10:14:47;102026.30;;;5.54;72.23
68380;BME280;57711;53.196;19.638;2023-02-14T10:17:44;102026.36;;;5.57;72.23
68380;BME280;57711;53.196;19.638;2023-02-14T10:23:18;102022.80;;;5.65;72.22
68380;BME280;57711;53.196;19.638;2023-02-14T10:25:56;102019.63;;;5.67;72.27
68380;BME280;57711;53.196;19.638;2023-02-14T10:28:38;102019.54;;;5.70;72.21
68380;BME280;57711;53.196;19.638;2023-02-14T10:31:18;102019.11;;;5.72;72.32
68380;BME280;57711;53.196;19.638;2023-02-14T10:33:55;102019.00;;;5.75;72.32
68380;BME280;57711;53.196;19.638;2023-02-14T10:36:47;102022.10;;;5.78;72.12
68380;BME280;57711;53.196;19.638;2023-02-14T10:42:31;102018.60;;;5.89;72.11
68380;BME280;57711;53.196;19.638;2023-02-14T10:53:19;102015.42;;;6.01;72.18
68380;BME280;57711;53.196;19.638;2023-02-14T10:55:56;102014.66;;;6.02;72.14
68380;BME280;57711;53.196;19.638;2023-02-14T10:58:31;102012.66;;;6.03;72.23
68380;BME280;57711;53.196;19.638;2023-02-14T11:01:18;102011.87;;;6.01;72.20
68380;BME280;57711;53.196;19.638;2023-02-14T11:03:57;102010.80;;;6.00;71.96
68380;BME280;57711;53.196;19.638;2023-02-14T11:06:30;102012.10;;;5.99;71.97
68380;BME280;57711;53.196;19.638;2023-02-14T11:08:57;102007.02;;;6.00;71.97
68380;BME280;57711;53.196;19.638;2023-02-14T11:11:29;102006.68;;;6.00;71.89
68380;BME280;57711;53.196;19.638;2023-02-14T11:13:57;102011.13;;;6.01;72.08
68380;BME280;57711;53.196;19.638;2023-02-14T11:16:36;102009.09;;;6.02;72.01
68380;BME280;57711;53.196;19.638;2023-02-14T11:19:26;102010.79;;;6.04;72.08
68380;BME280;57711;53.196;19.638;2023-02-14T11:21:56;102007.09;;;6.08;72.18
68380;BME280;57711;53.196;19.638;2023-02-14T11:24:33;102004.52;;;6.09;72.20
68380;BME280;57711;53.196;19.638;2023-02-14T11:27:03;102005.60;;;6.09;72.14
68380;BME280;57711;53.196;19.638;2023-02-14T11:29:47;102005.55;;;6.10;72.10
68380;BME280;57711;53.196;19.638;2023-02-14T11:32:29;102001.07;;;6.18;72.31
68380;BME280;57711;53.196;19.638;2023-02-14T11:35:16;102001.57;;;6.40;72.51
68380;BME280;57711;53.196;19.638;2023-02-14T11:37:49;101997.92;;;6.57;72.31
68380;BME280;57711;53.196;19.638;2023-02-14T11:40:35;101994.24;;;6.67;72.33
68380;BME280;57711;53.196;19.638;2023-02-14T11:45:46;101995.14;;;6.83;72.21
68380;BME280;57711;53.196;19.638;2023-02-14T11:48:24;101990.06;;;6.88;72.07
68380;BME280;57711;53.196;19.638;2023-02-14T11:51:11;101988.12;;;6.91;72.17
68380;BME280;57711;53.196;19.638;2023-02-14T11:53:43;101984.91;;;6.94;72.26
68380;BME280;57711;53.196;19.638;2023-02-14T11:56:12;101985.29;;;7.02;72.21
68380;BME280;57711;53.196;19.638;2023-02-14T11:58:58;101978.90;;;7.15;72.37
68380;BME280;57711;53.196;19.638;2023-02-14T12:01:32;101969.15;;;7.39;72.41
68380;BME280;57711;53.196;19.638;2023-02-14T12:04:06;101965.19;;;7.57;72.40
68380;BME280;57711;53.196;19.638;2023-02-14T12:06:39;101962.04;;;7.77;72.32
68380;BME280;57711;53.196;19.638;2023-02-14T12:12:00;101956.55;;;7.97;72.05
68380;BME280;57711;53.196;19.638;2023-02-14T12:14:33;101954.64;;;8.06;72.15
68380;BME280;57711;53.196;19.638;2023-02-14T12:22:18;101957.95;;;8.43;72.01
68380;BME280;57711;53.196;19.638;2023-02-14T12:24:58;101962.74;;;8.51;71.87
68380;BME280;57711;53.196;19.638;2023-02-14T12:27:40;101952.29;;;8.58;71.87
68380;BME280;57711;53.196;19.638;2023-02-14T12:30:17;101952.02;;;8.60;71.93
68380;BME280;57711;53.196;19.638;2023-02-14T12:32:49;101949.42;;;8.68;71.95
68380;BME280;57711;53.196;19.638;2023-02-14T12:35:21;101945.30;;;8.78;71.65
68380;BME280;57711;53.196;19.638;2023-02-14T12:46:16;101946.51;;;8.68;71.70
68380;BME280;57711;53.196;19.638;2023-02-14T12:52:02;101940.88;;;8.59;71.61
68380;BME280;57711;53.196;19.638;2023-02-14T13:03:25;101933.30;;;8.53;71.40
68380;BME280;57711;53.196;19.638;2023-02-14T13:06:22;101934.94;;;8.52;71.47
68380;BME280;57711;53.196;19.638;2023-02-14T13:12:13;101932.94;;;8.56;71.59
68380;BME280;57711;53.196;19.638;2023-02-14T13:23:12;101932.89;;;8.64;71.55
68380;BME280;57711;53.196;19.638;2023-02-14T13:25:42;101932.80;;;8.65;71.52
68380;BME280;57711;53.196;19.638;2023-02-14T13:28:16;101933.65;;;8.66;71.45
68380;BME280;57711;53.196;19.638;2023-02-14T13:30:44;101936.95;;;8.68;71.48
68380;BME280;57711;53.196;19.638;2023-02-14T13:33:32;101938.89;;;8.73;71.36
68380;BME280;57711;53.196;19.638;2023-02-14T13:36:05;101934.89;;;8.77;71.54
68380;BME280;57711;53.196;19.638;2023-02-14T13:38:39;101927.16;;;8.79;71.17
68380;BME280;57711;53.196;19.638;2023-02-14T13:41:09;101927.50;;;8.77;71.13
68380;BME280;57711;53.196;19.638;2023-02-14T13:46:18;101929.98;;;8.64;71.05
68380;BME280;57711;53.196;19.638;2023-02-14T13:49:15;101924.19;;;8.58;71.17
68380;BME280;57711;53.196;19.638;2023-02-14T13:51:50;101921.45;;;8.55;71.35
68380;BME280;57711;53.196;19.638;2023-02-14T13:57:03;101925.27;;;8.47;71.17
68380;BME280;57711;53.196;19.638;2023-02-14T14:02:46;101925.53;;;8.35;71.16
68380;BME280;57711;53.196;19.638;2023-02-14T14:16:26;101925.82;;;8.30;71.14
68380;BME280;57711;53.196;19.638;2023-02-14T14:19:33;101923.05;;;8.28;71.24
68380;BME280;57711;53.196;19.638;2023-02-14T14:22:04;101925.74;;;8.18;71.01
68380;BME280;57711;53.196;19.638;2023-02-14T14:24:35;101926.55;;;8.12;71.04
68380;BME280;57711;53.196;19.638;2023-02-14T14:27:28;101924.12;;;8.07;71.25
68380;BME280;57711;53.196;19.638;2023-02-14T14:30:01;101925.22;;;8.00;71.10
68380;BME280;57711;53.196;19.638;2023-02-14T14:32:32;101928.06;;;7.94;70.98
68380;BME280;57711;53.196;19.638;2023-02-14T14:35:16;101932.30;;;7.88;71.07
68380;BME280;57711;53.196;19.638;2023-02-14T14:37:55;101933.27;;;7.80;71.13
68380;BME280;57711;53.196;19.638;2023-02-14T14:40:31;101935.13;;;7.75;70.90
68380;BME280;57711;53.196;19.638;2023-02-14T14:43:26;101933.58;;;7.73;71.02
68380;BME280;57711;53.196;19.638;2023-02-14T14:45:56;101932.23;;;7.72;71.04
68380;BME280;57711;53.196;19.638;2023-02-14T14:48:34;101927.30;;;7.70;71.06
68380;BME280;57711;53.196;19.638;2023-02-14T14:51:05;101931.74;;;7.67;71.06
68380;BME280;57711;53.196;19.638;2023-02-14T14:53:54;101935.39;;;7.63;70.89
68380;BME280;57711;53.196;19.638;2023-02-14T14:56:28;101934.63;;;7.56;70.99
68380;BME280;57711;53.196;19.638;2023-02-14T14:59:15;101930.45;;;7.50;70.97
68380;BME280;57711;53.196;19.638;2023-02-14T15:01:43;101932.48;;;7.45;71.20
68380;BME280;57711;53.196;19.638;2023-02-14T15:04:17;101931.86;;;7.40;70.98
68380;BME280;57711;53.196;19.638;2023-02-14T15:06:46;101931.40;;;7.34;71.00
68380;BME280;57711;53.196;19.638;2023-02-14T15:09:23;101937.08;;;7.29;71.09
68380;BME280;57711;53.196;19.638;2023-02-14T15:11:57;101932.76;;;7.25;70.91
68380;BME280;57711;53.196;19.638;2023-02-14T15:14:46;101936.18;;;7.21;70.89